Time;durP1;ratioP1;P1;durP2;ratioP2;P2;SDS_P1;SDS_P2;PMS_P1;PMS_P2;Temp;Humidity;BMP_temperature;BMP_pressure;BME280_temperature;BME280_humidity;BME280_pressure;Samples;Min_cycle;Max_cycle;Signal;HPM_P1;HPM_P2
2022/03/27 00:00:40;;;;;;;31.90;22.75;;;;;;;;;;5054323;28;20049;-63
2022/03/27 00:03:09;;;;;;;31.58;24.10;;;;;;;;;;5053840;28;20069;-63
2022/03/27 00:05:39;;;;;;;36.20;23.10;;;;;;;;;;5054325;28;20055;-63
2022/03/27 00:08:09;;;;;;;45.88;27.25;;;;;;;;;;5053077;28;20492;-63
2022/03/27 00:13:25;;;;;;;37.05;25.17;;;;;;;;;;5034325;28;20053;-63
2022/03/27 00:15:54;;;;;;;33.42;24.45;;;;;;;;;;5034396;28;20053;-63
2022/03/27 00:18:25;;;;;;;36.20;26.38;;;;;;;;;;5034678;28;20489;-63
2022/03/27 00:20:54;;;;;;;35.03;25.35;;;;;;;;;;5033662;28;20076;-63
2022/03/27 00:23:27;;;;;;;39.15;27.45;;;;;;;;;;5034468;28;20076;-63
2022/03/27 00:25:55;;;;;;;33.67;24.42;;;;;;;;;;5033931;28;20049;-63
2022/03/27 00:28:25;;;;;;;35.50;27.02;;;;;;;;;;5034034;28;20046;-63
2022/03/27 00:30:54;;;;;;;39.53;27.38;;;;;;;;;;5033581;28;20053;-65
2022/03/27 00:33:22;;;;;;;34.85;25.63;;;;;;;;;;5034101;28;20056;-66
2022/03/27 00:35:51;;;;;;;41.65;25.67;;;;;;;;;;5032518;28;20053;-65
2022/03/27 00:38:19;;;;;;;41.10;27.52;;;;;;;;;;5034120;28;20075;-65
2022/03/27 00:40:50;;;;;;;34.10;25.70;;;;;;;;;;5033855;28;20080;-65
2022/03/27 00:43:19;;;;;;;36.33;25.13;;;;;;;;;;5033958;28;20057;-65
2022/03/27 00:45:47;;;;;;;35.63;26.30;;;;;;;;;;5033833;28;20141;-65
2022/03/27 00:48:18;;;;;;;36.13;25.40;;;;;;;;;;5032273;28;20049;-65
2022/03/27 00:50:47;;;;;;;32.90;25.85;;;;;;;;;;5033623;28;20046;-65
2022/03/27 00:53:16;;;;;;;40.63;26.15;;;;;;;;;;5033410;28;20050;-65
2022/03/27 00:55:45;;;;;;;38.42;26.63;;;;;;;;;;5033808;28;20095;-65
2022/03/27 00:58:14;;;;;;;37.30;26.58;;;;;;;;;;5033705;28;20049;-66
2022/03/27 01:00:57;;;;;;;37.22;25.75;;;;;;;;;;5033220;28;20085;-65
2022/03/27 01:03:26;;;;;;;39.72;25.20;;;;;;;;;;5033262;28;20405;-65
2022/03/27 01:05:57;;;;;;;33.80;25.05;;;;;;;;;;5033515;28;20103;-65
2022/03/27 01:11:17;;;;;;;31.70;22.95;;;;;;;;;;5033391;28;20049;-65
2022/03/27 01:13:50;;;;;;;38.03;24.63;;;;;;;;;;5034105;28;20095;-66
2022/03/27 01:16:42;;;;;;;37.03;24.13;;;;;;;;;;5034194;28;20060;-65
2022/03/27 01:19:14;;;;;;;36.72;23.08;;;;;;;;;;5033628;28;20050;-65
2022/03/27 01:21:44;;;;;;;34.85;25.65;;;;;;;;;;5032243;28;20056;-65
2022/03/27 01:24:16;;;;;;;34.53;24.25;;;;;;;;;;5033565;28;20385;-65
2022/03/27 01:26:45;;;;;;;35.80;23.83;;;;;;;;;;5033341;28;20052;-65
2022/03/27 01:29:13;;;;;;;35.10;23.98;;;;;;;;;;5033555;28;20057;-66
2022/03/27 01:31:42;;;;;;;35.80;22.55;;;;;;;;;;5033753;28;20045;-65
2022/03/27 01:34:12;;;;;;;35.05;22.92;;;;;;;;;;5037341;28;20080;-66
2022/03/27 01:36:41;;;;;;;28.77;20.83;;;;;;;;;;5037188;28;20137;-65
2022/03/27 01:39:14;;;;;;;30.88;22.08;;;;;;;;;;5037714;28;20057;-66
2022/03/27 01:41:43;;;;;;;32.22;22.65;;;;;;;;;;5037357;28;20091;-65
2022/03/27 01:44:16;;;;;;;31.80;22.58;;;;;;;;;;5037419;28;20041;-65
2022/03/27 01:46:46;;;;;;;31.65;22.08;;;;;;;;;;5036927;28;20041;-64
2022/03/27 01:49:15;;;;;;;29.95;21.58;;;;;;;;;;5037161;28;20057;-64
2022/03/27 01:51:44;;;;;;;30.48;20.42;;;;;;;;;;5036853;28;20504;-64
2022/03/27 01:54:14;;;;;;;28.92;21.38;;;;;;;;;;5037242;28;20049;-63
2022/03/27 01:56:43;;;;;;;28.02;20.73;;;;;;;;;;5037013;28;20087;-63
2022/03/27 01:59:12;;;;;;;27.65;21.45;;;;;;;;;;5035669;28;20046;-63
2022/03/27 02:01:41;;;;;;;30.15;22.05;;;;;;;;;;5037258;28;20108;-63
2022/03/27 02:04:11;;;;;;;30.38;22.20;;;;;;;;;;5037011;28;20140;-64
2022/03/27 02:06:43;;;;;;;33.70;23.10;;;;;;;;;;5036997;28;20064;-65
2022/03/27 02:09:12;;;;;;;36.45;23.65;;;;;;;;;;5036840;28;20050;-64
2022/03/27 02:11:42;;;;;;;31.65;22.23;;;;;;;;;;5035627;28;20590;-64
2022/03/27 02:14:11;;;;;;;35.03;22.63;;;;;;;;;;5036624;28;20519;-64
2022/03/27 02:16:40;;;;;;;31.10;21.13;;;;;;;;;;5035633;28;20061;-64
2022/03/27 02:19:09;;;;;;;29.80;20.77;;;;;;;;;;5036555;28;20056;-64
2022/03/27 02:21:41;;;;;;;33.45;20.63;;;;;;;;;;5037157;28;20041;-64
2022/03/27 02:24:10;;;;;;;27.05;20.92;;;;;;;;;;5036943;28;20123;-64
2022/03/27 02:26:46;;;;;;;34.58;23.45;;;;;;;;;;5054057;28;20102;-64
2022/03/27 02:29:16;;;;;;;32.33;22.92;;;;;;;;;;5053473;28;20049;-64
2022/03/27 02:31:45;;;;;;;32.47;21.65;;;;;;;;;;5036407;28;20045;-64
2022/03/27 02:34:15;;;;;;;29.52;21.63;;;;;;;;;;5036454;28;20500;-64
2022/03/27 02:36:43;;;;;;;32.78;23.65;;;;;;;;;;5036198;28;20107;-64
2022/03/27 02:39:11;;;;;;;30.38;22.27;;;;;;;;;;5036458;28;20502;-64
2022/03/27 02:41:45;;;;;;;22.80;18.20;;;;;;;;;;5036450;28;20446;-64
2022/03/27 02:44:14;;;;;;;28.50;18.30;;;;;;;;;;5035902;28;20077;-64
2022/03/27 02:46:43;;;;;;;30.65;19.45;;;;;;;;;;5036058;28;20408;-64
2022/03/27 02:49:13;;;;;;;27.42;17.58;;;;;;;;;;5036265;28;20045;-64
2022/03/27 02:51:42;;;;;;;31.17;22.13;;;;;;;;;;5035767;28;20144;-64
2022/03/27 02:54:12;;;;;;;27.27;17.95;;;;;;;;;;5036088;28;20053;-64
2022/03/27 02:56:40;;;;;;;26.38;19.35;;;;;;;;;;5036062;28;20068;-64
2022/03/27 02:59:10;;;;;;;26.38;20.17;;;;;;;;;;5035834;28;20053;-64
2022/03/27 03:01:38;;;;;;;29.90;20.70;;;;;;;;;;5035928;28;20574;-64
2022/03/27 03:04:09;;;;;;;30.30;18.63;;;;;;;;;;5035935;28;20421;-64
2022/03/27 03:06:37;;;;;;;27.23;19.45;;;;;;;;;;5036138;28;20175;-65
2022/03/27 03:09:07;;;;;;;26.15;20.75;;;;;;;;;;5035682;28;20057;-65
2022/03/27 03:11:36;;;;;;;31.27;21.15;;;;;;;;;;5036031;28;20457;-64
2022/03/27 03:14:06;;;;;;;26.90;18.63;;;;;;;;;;5035599;28;20057;-64
2022/03/27 03:16:54;;;;;;;25.27;17.73;;;;;;;;;;5047400;28;20049;-64
2022/03/27 03:19:24;;;;;;;28.27;18.35;;;;;;;;;;5055332;28;20439;-64
2022/03/27 03:21:53;;;;;;;38.38;19.55;;;;;;;;;;5055534;28;20132;-64
2022/03/27 03:24:25;;;;;;;28.65;18.67;;;;;;;;;;5055086;28;20052;-64
2022/03/27 03:26:58;;;;;;;26.42;18.35;;;;;;;;;;5054560;28;20060;-64
2022/03/27 03:29:27;;;;;;;26.43;16.83;;;;;;;;;;5055099;28;20403;-65
2022/03/27 03:31:56;;;;;;;27.98;18.92;;;;;;;;;;5054491;28;20333;-64
2022/03/27 03:34:25;;;;;;;30.35;19.05;;;;;;;;;;5055527;28;20103;-64
2022/03/27 03:36:54;;;;;;;21.15;17.10;;;;;;;;;;5054678;28;20053;-64
2022/03/27 03:39:23;;;;;;;31.33;20.13;;;;;;;;;;5054948;28;20115;-64
2022/03/27 03:41:53;;;;;;;24.63;17.55;;;;;;;;;;5054375;28;20053;-64
2022/03/27 03:44:26;;;;;;;23.80;16.67;;;;;;;;;;5055056;28;20128;-64
2022/03/27 03:46:55;;;;;;;27.25;19.35;;;;;;;;;;5054674;28;20136;-65
2022/03/27 03:49:24;;;;;;;22.27;17.88;;;;;;;;;;5054337;28;20041;-65
2022/03/27 03:51:53;;;;;;;25.38;17.40;;;;;;;;;;5054805;28;20059;-65
2022/03/27 03:54:21;;;;;;;22.40;17.67;;;;;;;;;;5051556;28;20060;-65
2022/03/27 03:56:49;;;;;;;29.02;19.20;;;;;;;;;;5054606;28;20079;-65
2022/03/27 03:59:18;;;;;;;22.65;16.80;;;;;;;;;;5053105;28;20060;-64
2022/03/27 04:01:58;;;;;;;26.23;18.20;;;;;;;;;;5054472;28;20496;-64
2022/03/27 04:04:28;;;;;;;27.77;17.65;;;;;;;;;;5054117;28;20052;-64
2022/03/27 04:06:57;;;;;;;24.50;17.83;;;;;;;;;;5053705;28;20419;-64
2022/03/27 04:09:27;;;;;;;24.67;17.15;;;;;;;;;;5054177;28;20140;-64
2022/03/27 04:11:56;;;;;;;27.10;20.40;;;;;;;;;;5054090;28;20045;-63
2022/03/27 04:14:25;;;;;;;27.02;18.48;;;;;;;;;;5045404;28;20504;-64
2022/03/27 04:16:54;;;;;;;31.75;19.42;;;;;;;;;;5053894;28;20045;-64
2022/03/27 04:19:23;;;;;;;23.50;18.38;;;;;;;;;;5054071;28;20045;-64
2022/03/27 04:21:52;;;;;;;27.67;18.52;;;;;;;;;;5053111;28;20460;-64
2022/03/27 04:24:20;;;;;;;27.35;20.42;;;;;;;;;;5054067;28;20065;-64
2022/03/27 04:26:50;;;;;;;26.55;19.13;;;;;;;;;;5053868;28;20045;-64
2022/03/27 04:29:21;;;;;;;24.70;18.00;;;;;;;;;;5053770;28;20102;-64
2022/03/27 04:31:52;;;;;;;27.05;19.70;;;;;;;;;;5053708;28;20053;-64
2022/03/27 04:34:21;;;;;;;23.88;17.65;;;;;;;;;;5053168;28;20068;-64
2022/03/27 04:36:50;;;;;;;27.90;20.80;;;;;;;;;;5048649;28;20053;-64
2022/03/27 04:39:19;;;;;;;25.63;18.58;;;;;;;;;;5034161;28;20131;-64
2022/03/27 04:41:49;;;;;;;30.20;20.17;;;;;;;;;;5035301;28;20087;-64
2022/03/27 04:44:19;;;;;;;25.25;18.30;;;;;;;;;;5039163;28;20111;-64
2022/03/27 04:46:48;;;;;;;30.77;19.70;;;;;;;;;;5033997;28;20073;-63
2022/03/27 04:49:16;;;;;;;29.50;19.27;;;;;;;;;;5033975;28;20076;-63
2022/03/27 04:51:46;;;;;;;28.00;19.40;;;;;;;;;;5034177;28;20056;-64
2022/03/27 04:54:14;;;;;;;26.63;18.25;;;;;;;;;;5034230;28;20511;-64
2022/03/27 04:56:48;;;;;;;25.90;18.02;;;;;;;;;;5034323;28;20524;-64
2022/03/27 04:59:17;;;;;;;26.90;19.13;;;;;;;;;;5037477;28;20048;-64
2022/03/27 05:01:46;;;;;;;27.17;18.60;;;;;;;;;;5053101;28;20057;-64
2022/03/27 05:04:14;;;;;;;26.75;19.33;;;;;;;;;;5052968;28;20061;-64
2022/03/27 05:06:43;;;;;;;24.95;18.08;;;;;;;;;;5051775;28;20053;-65
2022/03/27 05:09:13;;;;;;;27.15;18.25;;;;;;;;;;5034695;28;20080;-65
2022/03/27 05:11:43;;;;;;;27.70;18.17;;;;;;;;;;5033766;28;20119;-65
2022/03/27 05:14:12;;;;;;;26.27;19.25;;;;;;;;;;5036862;28;20049;-63
2022/03/27 05:16:40;;;;;;;26.13;17.45;;;;;;;;;;5042459;28;20408;-63
2022/03/27 05:19:10;;;;;;;29.48;17.30;;;;;;;;;;5036174;28;20057;-64
2022/03/27 05:21:39;;;;;;;28.95;18.00;;;;;;;;;;5044361;28;20044;-64
2022/03/27 05:24:09;;;;;;;24.45;17.60;;;;;;;;;;5044214;28;20046;-64
2022/03/27 05:26:39;;;;;;;22.88;17.00;;;;;;;;;;5042243;28;20140;-64
2022/03/27 05:29:10;;;;;;;25.70;18.67;;;;;;;;;;5039717;28;20535;-65
2022/03/27 05:31:40;;;;;;;29.60;17.13;;;;;;;;;;5034365;28;20505;-64
2022/03/27 05:34:09;;;;;;;22.30;17.13;;;;;;;;;;5041593;28;20045;-65
2022/03/27 05:36:37;;;;;;;24.80;17.10;;;;;;;;;;5045580;28;20059;-65
2022/03/27 05:39:05;;;;;;;23.10;17.63;;;;;;;;;;5042339;28;20044;-65
2022/03/27 05:41:34;;;;;;;23.45;17.88;;;;;;;;;;5036666;28;20409;-65
2022/03/27 05:44:03;;;;;;;28.98;18.08;;;;;;;;;;5041163;28;20048;-65
2022/03/27 05:46:34;;;;;;;24.08;17.73;;;;;;;;;;5045126;28;20061;-65
2022/03/27 05:49:03;;;;;;;28.10;17.92;;;;;;;;;;5039678;28;20077;-65
2022/03/27 05:51:32;;;;;;;24.08;18.10;;;;;;;;;;5044853;28;20400;-67
2022/03/27 05:54:03;;;;;;;23.08;17.17;;;;;;;;;;5046704;28;20056;-65
2022/03/27 05:56:34;;;;;;;32.90;17.77;;;;;;;;;;5041036;28;20072;-65
2022/03/27 05:59:03;;;;;;;21.63;15.68;;;;;;;;;;5032083;28;20077;-64
2022/03/27 06:01:32;;;;;;;27.23;19.58;;;;;;;;;;5040183;28;20071;-64
2022/03/27 06:04:01;;;;;;;25.50;17.20;;;;;;;;;;5036623;28;20558;-64
2022/03/27 06:06:30;;;;;;;26.95;17.40;;;;;;;;;;5044690;28;20049;-65
2022/03/27 06:08:58;;;;;;;29.77;18.35;;;;;;;;;;5032851;28;20053;-64
2022/03/27 06:11:28;;;;;;;27.38;17.35;;;;;;;;;;5045862;28;20048;-64
2022/03/27 06:13:56;;;;;;;29.08;18.75;;;;;;;;;;5045375;28;20049;-64
2022/03/27 06:16:24;;;;;;;29.20;17.92;;;;;;;;;;5045314;28;20124;-64
2022/03/27 06:18:53;;;;;;;27.85;17.00;;;;;;;;;;5048623;28;20491;-64
2022/03/27 06:21:23;;;;;;;25.05;17.25;;;;;;;;;;5049556;28;20056;-64
2022/03/27 06:23:52;;;;;;;25.58;17.55;;;;;;;;;;5049523;28;20088;-64
2022/03/27 06:26:21;;;;;;;20.90;16.33;;;;;;;;;;5049023;28;20071;-65
2022/03/27 06:28:50;;;;;;;27.92;17.80;;;;;;;;;;5049204;28;20060;-65
2022/03/27 06:31:18;;;;;;;26.83;17.63;;;;;;;;;;5047958;28;20557;-73
2022/03/27 06:33:47;;;;;;;27.73;19.23;;;;;;;;;;5035995;28;20046;-63
2022/03/27 06:36:15;;;;;;;28.63;19.90;;;;;;;;;;5041825;28;20136;-63
2022/03/27 06:38:44;;;;;;;28.00;19.40;;;;;;;;;;5037010;28;20057;-62
2022/03/27 06:41:13;;;;;;;26.98;19.80;;;;;;;;;;5049866;28;20537;-62
2022/03/27 06:43:42;;;;;;;29.25;19.70;;;;;;;;;;5054637;28;20467;-62
2022/03/27 06:46:15;;;;;;;33.45;21.45;;;;;;;;;;5054863;28;20120;-62
2022/03/27 06:48:47;;;;;;;37.72;22.02;;;;;;;;;;5054161;28;20045;-62
2022/03/27 06:51:15;;;;;;;32.95;22.50;;;;;;;;;;5055461;28;20052;-62
2022/03/27 06:53:45;;;;;;;34.88;20.77;;;;;;;;;;5054900;28;20043;-62
2022/03/27 06:56:13;;;;;;;31.42;20.95;;;;;;;;;;5054444;28;20048;-62
2022/03/27 06:58:42;;;;;;;32.25;22.10;;;;;;;;;;5054116;28;20075;-62
2022/03/27 07:03:58;;;;;;;46.67;28.33;;;;;;;;;;5055449;28;20045;-62
2022/03/27 07:06:27;;;;;;;42.90;27.38;;;;;;;;;;5055199;28;20148;-62
2022/03/27 07:08:56;;;;;;;35.60;25.70;;;;;;;;;;5045975;28;20123;-62
2022/03/27 07:11:24;;;;;;;45.33;27.77;;;;;;;;;;5035604;28;20525;-62
2022/03/27 07:13:53;;;;;;;42.75;28.60;;;;;;;;;;5035457;28;20052;-62
2022/03/27 07:16:26;;;;;;;35.97;27.77;;;;;;;;;;5035294;28;20049;-63
2022/03/27 07:18:55;;;;;;;35.58;26.92;;;;;;;;;;5051589;28;20087;-63
2022/03/27 07:21:29;;;;;;;59.60;38.77;;;;;;;;;;5055142;28;20044;-63
2022/03/27 07:23:58;;;;;;;38.25;28.85;;;;;;;;;;5054925;28;20283;-63
2022/03/27 07:26:26;;;;;;;45.38;29.48;;;;;;;;;;5054654;28;20489;-63
2022/03/27 07:28:56;;;;;;;43.90;28.80;;;;;;;;;;5054089;28;20055;-63
2022/03/27 07:31:25;;;;;;;33.00;22.27;;;;;;;;;;5053886;28;20132;-63
2022/03/27 07:33:55;;;;;;;31.02;22.00;;;;;;;;;;5052595;28;20102;-65
2022/03/27 07:36:23;;;;;;;34.75;21.25;;;;;;;;;;5056494;28;20116;-65
2022/03/27 07:38:53;;;;;;;46.53;23.33;;;;;;;;;;5034836;28;20061;-65
2022/03/27 07:41:23;;;;;;;30.88;21.50;;;;;;;;;;5037268;28;20088;-65
2022/03/27 07:43:52;;;;;;;35.35;22.92;;;;;;;;;;5041017;28;20049;-64
2022/03/27 07:46:21;;;;;;;30.83;21.35;;;;;;;;;;5040015;28;20041;-64
2022/03/27 07:48:49;;;;;;;31.35;21.10;;;;;;;;;;5032042;28;20049;-64
2022/03/27 07:51:24;;;;;;;28.63;19.95;;;;;;;;;;5033361;28;20136;-65
2022/03/27 07:53:53;;;;;;;32.05;20.90;;;;;;;;;;5038829;28;20061;-65
2022/03/27 07:56:26;;;;;;;36.53;21.60;;;;;;;;;;5033529;28;20077;-65
2022/03/27 07:58:54;;;;;;;25.45;18.40;;;;;;;;;;5035243;28;20053;-66
2022/03/27 08:01:24;;;;;;;34.75;20.50;;;;;;;;;;5038417;28;20132;-68
2022/03/27 08:03:56;;;;;;;29.60;20.67;;;;;;;;;;5035645;28;20159;-68
2022/03/27 08:06:25;;;;;;;26.23;18.85;;;;;;;;;;5032876;28;20052;-67
2022/03/27 08:08:56;;;;;;;24.98;19.63;;;;;;;;;;5034667;28;20049;-66
2022/03/27 08:11:25;;;;;;;24.65;18.70;;;;;;;;;;5041011;28;20087;-64
2022/03/27 08:13:54;;;;;;;32.00;21.05;;;;;;;;;;5043735;28;20044;-67
2022/03/27 08:16:26;;;;;;;31.77;21.48;;;;;;;;;;5044152;28;20048;-67
2022/03/27 08:18:55;;;;;;;29.67;21.80;;;;;;;;;;5035582;28;20041;-68
2022/03/27 08:21:25;;;;;;;31.95;22.52;;;;;;;;;;5034298;28;20140;-65
2022/03/27 08:23:53;;;;;;;34.03;22.40;;;;;;;;;;5033147;28;20050;-66
2022/03/27 08:29:08;;;;;;;28.50;21.63;;;;;;;;;;5037700;28;20049;-67
2022/03/27 08:31:40;;;;;;;30.35;22.92;;;;;;;;;;5035931;28;20049;-66
2022/03/27 08:34:09;;;;;;;28.65;22.95;;;;;;;;;;5035540;28;20483;-65
2022/03/27 08:36:37;;;;;;;31.25;21.52;;;;;;;;;;5039749;28;20045;-65
2022/03/27 08:39:07;;;;;;;31.20;22.63;;;;;;;;;;5043308;28;20142;-65
2022/03/27 08:41:36;;;;;;;31.15;21.00;;;;;;;;;;5043955;28;20045;-65
2022/03/27 08:44:06;;;;;;;28.52;22.15;;;;;;;;;;5041244;28;20045;-65
2022/03/27 08:46:34;;;;;;;28.55;21.98;;;;;;;;;;5037793;28;20469;-65
2022/03/27 08:49:25;;;;;;;29.13;22.45;;;;;;;;;;5038223;28;20129;-69
2022/03/27 08:51:57;;;;;;;29.52;22.13;;;;;;;;;;5039100;28;20057;-68
2022/03/27 08:54:29;;;;;;;30.38;24.13;;;;;;;;;;5039646;28;20053;-70
2022/03/27 08:57:08;;;;;;;28.95;21.85;;;;;;;;;;5039488;28;20063;-69
2022/03/27 08:59:38;;;;;;;27.35;21.33;;;;;;;;;;5037875;28;20045;-69
2022/03/27 09:02:07;;;;;;;34.03;24.17;;;;;;;;;;5036505;28;20053;-75
2022/03/27 09:04:37;;;;;;;27.52;22.73;;;;;;;;;;5036081;28;20049;-73
2022/03/27 09:07:06;;;;;;;29.05;23.77;;;;;;;;;;5036224;28;20053;-70
2022/03/27 09:09:35;;;;;;;31.98;24.48;;;;;;;;;;5042205;28;20049;-73
2022/03/27 09:12:04;;;;;;;31.25;23.92;;;;;;;;;;5038056;28;20049;-73
2022/03/27 09:14:33;;;;;;;28.83;23.02;;;;;;;;;;5035338;28;20144;-77
2022/03/27 09:17:06;;;;;;;27.98;21.77;;;;;;;;;;5035129;28;20053;-70
2022/03/27 09:19:39;;;;;;;29.20;22.63;;;;;;;;;;5036802;28;20507;-70
2022/03/27 09:22:15;;;;;;;30.73;24.20;;;;;;;;;;5038802;28;20854;-72
2022/03/27 09:24:47;;;;;;;32.00;24.13;;;;;;;;;;5042534;28;20046;-74
2022/03/27 09:27:17;;;;;;;32.17;23.27;;;;;;;;;;5032195;28;20053;-71
2022/03/27 09:30:09;;;;;;;30.15;23.02;;;;;;;;;;5032468;28;20124;-67
2022/03/27 09:32:45;;;;;;;29.95;23.52;;;;;;;;;;5035839;28;20053;-72
2022/03/27 09:35:17;;;;;;;31.42;23.35;;;;;;;;;;5035709;28;20048;-69
2022/03/27 09:37:46;;;;;;;28.40;24.15;;;;;;;;;;5035229;28;20520;-65
2022/03/27 09:40:16;;;;;;;27.95;22.05;;;;;;;;;;5035924;28;20095;-68
2022/03/27 09:42:47;;;;;;;30.80;23.83;;;;;;;;;;5034359;28;20130;-78
2022/03/27 09:45:15;;;;;;;36.55;23.85;;;;;;;;;;5033377;28;20456;-70
2022/03/27 09:47:48;;;;;;;36.28;26.67;;;;;;;;;;5035849;28;20463;-67
2022/03/27 09:50:34;;;;;;;33.42;24.55;;;;;;;;;;5035831;28;20054;-68
2022/03/27 09:53:19;;;;;;;28.48;24.23;;;;;;;;;;5036597;28;20167;-68
2022/03/27 09:55:56;;;;;;;32.45;25.30;;;;;;;;;;5037820;28;20612;-67
2022/03/27 09:58:46;;;;;;;29.50;23.58;;;;;;;;;;5039644;28;20053;-67
2022/03/27 10:01:16;;;;;;;31.33;25.20;;;;;;;;;;5039852;28;20501;-67
2022/03/27 10:04:10;;;;;;;45.90;24.13;;;;;;;;;;5038016;28;20045;-68
2022/03/27 10:06:41;;;;;;;36.80;27.08;;;;;;;;;;4991095;28;20502;-67
2022/03/27 10:09:11;;;;;;;34.75;23.92;;;;;;;;;;4971791;28;20560;-66
2022/03/27 10:11:42;;;;;;;41.33;27.75;;;;;;;;;;4990715;28;20143;-69
2022/03/27 10:14:11;;;;;;;38.40;25.67;;;;;;;;;;4985994;28;20121;-68
2022/03/27 10:16:46;;;;;;;39.33;24.70;;;;;;;;;;4987060;28;20038;-67
2022/03/27 10:19:33;;;;;;;35.05;25.45;;;;;;;;;;4990000;28;20081;-71
2022/03/27 10:22:02;;;;;;;32.85;25.35;;;;;;;;;;4991816;28;20050;-67
2022/03/27 10:24:32;;;;;;;35.63;25.35;;;;;;;;;;4965151;28;20050;-68
2022/03/27 10:27:03;;;;;;;33.15;27.52;;;;;;;;;;4987473;28;20138;-67
2022/03/27 10:29:32;;;;;;;37.72;27.70;;;;;;;;;;4985284;28;20502;-67
2022/03/27 10:32:00;;;;;;;36.90;28.05;;;;;;;;;;5027922;28;20079;-67
2022/03/27 10:34:31;;;;;;;32.35;26.45;;;;;;;;;;5036915;28;20046;-69
2022/03/27 10:37:17;;;;;;;37.83;24.58;;;;;;;;;;5040089;28;20576;-70
2022/03/27 10:40:12;;;;;;;32.20;25.75;;;;;;;;;;5040481;28;20456;-68
2022/03/27 10:42:54;;;;;;;37.40;29.93;;;;;;;;;;5040705;28;20072;-71
2022/03/27 10:45:30;;;;;;;35.05;28.20;;;;;;;;;;5038613;28;20053;-74
2022/03/27 10:48:11;;;;;;;37.20;27.20;;;;;;;;;;5038598;28;20148;-74
2022/03/27 10:50:50;;;;;;;37.00;26.85;;;;;;;;;;5036675;28;20045;-74
2022/03/27 10:53:22;;;;;;;38.70;28.38;;;;;;;;;;5039114;28;20060;-74
2022/03/27 10:55:52;;;;;;;44.70;34.50;;;;;;;;;;5041854;28;20079;-73
2022/03/27 10:58:41;;;;;;;36.03;29.10;;;;;;;;;;5034071;28;20589;-65
2022/03/27 11:01:23;;;;;;;32.78;26.67;;;;;;;;;;5033436;28;20041;-66
2022/03/27 11:04:07;;;;;;;39.15;25.58;;;;;;;;;;5036925;28;20049;-66
2022/03/27 11:06:40;;;;;;;37.22;29.90;;;;;;;;;;5044236;28;20056;-65
2022/03/27 11:09:12;;;;;;;35.40;27.05;;;;;;;;;;5049646;28;20567;-65
2022/03/27 11:11:47;;;;;;;45.53;27.73;;;;;;;;;;5050390;28;20420;-64
2022/03/27 11:14:53;;;;;;;38.05;29.88;;;;;;;;;;5051325;28;20399;-64
2022/03/27 11:17:42;;;;;;;40.40;29.13;;;;;;;;;;5051612;28;20072;-64
2022/03/27 11:20:16;;;;;;;40.67;28.73;;;;;;;;;;5050135;28;20492;-64
2022/03/27 11:22:48;;;;;;;42.63;32.50;;;;;;;;;;5054795;28;20423;-62
2022/03/27 11:25:29;;;;;;;38.45;29.17;;;;;;;;;;5054830;28;20048;-63
2022/03/27 11:27:57;;;;;;;40.92;29.73;;;;;;;;;;5053965;28;20389;-62
2022/03/27 11:30:27;;;;;;;41.10;30.15;;;;;;;;;;5054729;28;20041;-62
2022/03/27 11:33:20;;;;;;;34.38;27.67;;;;;;;;;;5053042;28;20053;-62
2022/03/27 11:36:12;;;;;;;38.22;29.70;;;;;;;;;;5035348;28;20116;-62
2022/03/27 11:39:04;;;;;;;33.80;26.25;;;;;;;;;;5052560;28;20143;-62
2022/03/27 11:41:44;;;;;;;42.40;32.47;;;;;;;;;;5055029;28;20069;-62
2022/03/27 11:47:33;;;;;;;44.55;30.38;;;;;;;;;;5054657;28;20069;-62
2022/03/27 11:50:02;;;;;;;36.42;28.35;;;;;;;;;;5085104;28;20049;-62
2022/03/27 11:52:31;;;;;;;36.58;29.80;;;;;;;;;;5048079;28;20076;-62
2022/03/27 11:55:11;;;;;;;41.88;30.45;;;;;;;;;;5052105;28;20068;-62
2022/03/27 11:57:48;;;;;;;43.75;31.38;;;;;;;;;;5054682;28;20067;-64
2022/03/27 12:00:34;;;;;;;37.30;28.00;;;;;;;;;;5051127;28;20407;-63
2022/03/27 12:03:21;;;;;;;38.92;28.83;;;;;;;;;;5053209;28;20041;-63
2022/03/27 12:06:09;;;;;;;42.10;30.55;;;;;;;;;;5033671;28;20049;-62
2022/03/27 12:08:40;;;;;;;41.93;29.57;;;;;;;;;;5034699;28;20505;-62
2022/03/27 12:11:09;;;;;;;44.05;29.00;;;;;;;;;;5040940;28;20075;-62
2022/03/27 12:13:40;;;;;;;42.47;27.95;;;;;;;;;;5053950;28;20053;-62
2022/03/27 12:16:23;;;;;;;40.88;28.60;;;;;;;;;;5053175;28;20136;-62
2022/03/27 12:19:14;;;;;;;37.63;30.25;;;;;;;;;;5054033;28;20052;-62
2022/03/27 12:21:46;;;;;;;41.80;30.08;;;;;;;;;;5053762;28;20103;-62
2022/03/27 12:24:21;;;;;;;43.15;30.13;;;;;;;;;;5054393;28;20083;-63
2022/03/27 12:29:40;;;;;;;35.53;28.42;;;;;;;;;;5054231;28;20049;-62
2022/03/27 12:32:13;;;;;;;37.30;29.88;;;;;;;;;;5053623;28;20052;-63
2022/03/27 12:34:48;;;;;;;47.03;30.13;;;;;;;;;;5053236;28;20059;-63
2022/03/27 12:37:20;;;;;;;46.72;28.98;;;;;;;;;;5053354;28;20061;-62
2022/03/27 12:39:49;;;;;;;36.80;27.70;;;;;;;;;;5053904;28;20064;-63
2022/03/27 12:42:46;;;;;;;40.13;30.63;;;;;;;;;;5053700;28;20059;-63
2022/03/27 12:45:29;;;;;;;45.63;31.80;;;;;;;;;;5053201;28;20510;-63
2022/03/27 12:48:13;;;;;;;35.13;27.95;;;;;;;;;;5036584;28;20069;-63
2022/03/27 12:50:51;;;;;;;46.35;28.80;;;;;;;;;;5042385;28;20124;-63
2022/03/27 12:53:20;;;;;;;42.72;32.13;;;;;;;;;;5034139;28;20509;-63
2022/03/27 12:55:50;;;;;;;39.33;29.65;;;;;;;;;;5033994;28;20447;-63
2022/03/27 12:58:20;;;;;;;50.33;29.95;;;;;;;;;;5034437;28;20574;-63
2022/03/27 13:01:07;;;;;;;38.05;28.15;;;;;;;;;;5033978;28;20583;-62
2022/03/27 13:03:44;;;;;;;38.15;30.00;;;;;;;;;;5048814;28;20049;-63
2022/03/27 13:06:14;;;;;;;50.00;30.95;;;;;;;;;;5053376;28;20128;-63
2022/03/27 13:08:43;;;;;;;44.10;30.08;;;;;;;;;;5053432;28;20068;-63
2022/03/27 13:11:21;;;;;;;42.75;31.77;;;;;;;;;;5051730;28;20056;-63
2022/03/27 13:14:00;;;;;;;42.17;31.73;;;;;;;;;;5052090;28;20074;-63
2022/03/27 13:16:29;;;;;;;49.38;33.85;;;;;;;;;;5052705;28;20462;-63
2022/03/27 13:19:09;;;;;;;47.60;33.33;;;;;;;;;;5053092;28;20112;-62
2022/03/27 13:21:52;;;;;;;43.10;32.22;;;;;;;;;;5052381;28;20080;-61
2022/03/27 13:24:23;;;;;;;39.80;30.92;;;;;;;;;;5052733;28;20045;-62
2022/03/27 13:27:12;;;;;;;44.10;32.95;;;;;;;;;;5052938;28;20055;-62
2022/03/27 13:29:42;;;;;;;41.85;34.63;;;;;;;;;;5052072;28;20523;-62
2022/03/27 13:32:11;;;;;;;44.28;31.10;;;;;;;;;;5053409;28;20084;-61
2022/03/27 13:34:39;;;;;;;48.40;32.33;;;;;;;;;;5052702;28;20049;-61
2022/03/27 13:37:08;;;;;;;48.08;35.25;;;;;;;;;;5052435;28;20068;-63
2022/03/27 13:39:36;;;;;;;48.25;35.90;;;;;;;;;;5053268;28;20076;-62
2022/03/27 13:44:55;;;;;;;41.40;31.63;;;;;;;;;;5051962;28;20049;-62
2022/03/27 13:47:23;;;;;;;48.72;34.10;;;;;;;;;;5053241;28;20563;-62
2022/03/27 13:49:55;;;;;;;46.33;31.92;;;;;;;;;;5051812;28;20049;-62
2022/03/27 13:52:24;;;;;;;41.25;30.17;;;;;;;;;;5052291;28;20063;-62
2022/03/27 13:54:53;;;;;;;46.55;34.13;;;;;;;;;;5052063;28;20069;-62
2022/03/27 13:57:23;;;;;;;44.42;32.63;;;;;;;;;;5051809;28;20069;-63
2022/03/27 13:59:52;;;;;;;46.45;33.78;;;;;;;;;;5052387;28;20065;-63
2022/03/27 14:02:21;;;;;;;43.05;34.15;;;;;;;;;;5053199;28;20057;-63
2022/03/27 14:04:51;;;;;;;43.20;31.70;;;;;;;;;;5052917;28;20471;-64
2022/03/27 14:07:20;;;;;;;43.40;31.92;;;;;;;;;;5049722;28;20100;-63
2022/03/27 14:09:48;;;;;;;41.58;31.50;;;;;;;;;;5051437;28;20091;-63
2022/03/27 14:12:15;;;;;;;45.15;31.98;;;;;;;;;;5049989;28;20500;-63
2022/03/27 14:14:44;;;;;;;47.65;34.70;;;;;;;;;;5051007;28;20128;-64
2022/03/27 14:17:13;;;;;;;42.00;31.52;;;;;;;;;;5050167;28;20075;-63
2022/03/27 14:19:42;;;;;;;46.97;31.90;;;;;;;;;;5045402;28;20056;-63
2022/03/27 14:22:11;;;;;;;42.72;31.08;;;;;;;;;;5048925;28;20095;-64
2022/03/27 14:24:40;;;;;;;38.95;30.17;;;;;;;;;;5050269;28;20048;-63
2022/03/27 14:27:08;;;;;;;44.60;30.30;;;;;;;;;;5051396;28;20492;-64
2022/03/27 14:29:37;;;;;;;39.92;34.10;;;;;;;;;;5048558;28;20538;-63
2022/03/27 14:32:07;;;;;;;38.67;29.98;;;;;;;;;;5046425;28;20104;-64
2022/03/27 14:34:41;;;;;;;38.85;29.33;;;;;;;;;;5038268;28;20496;-64
2022/03/27 14:37:13;;;;;;;35.63;28.95;;;;;;;;;;5035060;28;20102;-63
2022/03/27 14:39:43;;;;;;;42.70;32.38;;;;;;;;;;5036656;28;20455;-63
2022/03/27 14:42:12;;;;;;;36.03;29.35;;;;;;;;;;5037048;28;20513;-63
2022/03/27 14:44:40;;;;;;;41.78;27.92;;;;;;;;;;5037916;28;20059;-63
2022/03/27 14:47:09;;;;;;;36.13;29.60;;;;;;;;;;5035797;28;20057;-64
2022/03/27 14:49:39;;;;;;;34.60;28.48;;;;;;;;;;5036879;28;20050;-63
2022/03/27 14:52:08;;;;;;;37.28;26.52;;;;;;;;;;5040931;28;20489;-62
2022/03/27 14:57:28;;;;;;;39.95;27.33;;;;;;;;;;5038427;28;20057;-62
2022/03/27 15:00:00;;;;;;;31.95;27.73;;;;;;;;;;5036176;28;20524;-62
2022/03/27 15:02:30;;;;;;;32.88;26.25;;;;;;;;;;5040924;28;20053;-62
2022/03/27 15:04:59;;;;;;;33.40;26.45;;;;;;;;;;5038676;28;20148;-62